sensor_id;sensor_type;location;lat;lon;timestamp;pressure;altitude;pressure_sealevel;temperature;humidity
6028;BME280;3042;43.194;27.646;2022-11-20T00:00:25;101208.88;;;23.56;100.00
6028;BME280;3042;43.194;27.646;2022-11-20T00:02:52;101208.03;;;23.16;100.00
6028;BME280;3042;43.194;27.646;2022-11-20T00:05:20;101203.59;;;22.84;100.00
6028;BME280;3042;43.194;27.646;2022-11-20T00:07:47;101198.28;;;22.66;100.00
6028;BME280;3042;43.194;27.646;2022-11-20T00:10:14;101204.50;;;23.08;100.00
6028;BME280;3042;43.194;27.646;2022-11-20T00:12:42;101204.50;;;23.25;100.00
6028;BME280;3042;43.194;27.646;2022-11-20T00:15:11;101193.03;;;23.67;100.00
6028;BME280;3042;43.194;27.646;2022-11-20T00:17:38;101198.34;;;23.33;100.00
6028;BME280;3042;43.194;27.646;2022-11-20T00:20:06;101116.63;;;22.86;100.00
6028;BME280;3042;43.194;27.646;2022-11-20T00:22:33;101194.81;;;23.47;100.00
6028;BME280;3042;43.194;27.646;2022-11-20T00:25:00;101205.34;;;23.65;100.00
6028;BME280;3042;43.194;27.646;2022-11-20T00:27:27;101201.84;;;23.48;100.00
6028;BME280;3042;43.194;27.646;2022-11-20T00:29:54;101194.78;;;23.77;100.00
6028;BME280;3042;43.194;27.646;2022-11-20T00:32:23;101128.81;;;23.67;100.00
6028;BME280;3042;43.194;27.646;2022-11-20T00:34:50;101207.00;;;24.12;100.00
6028;BME280;3042;43.194;27.646;2022-11-20T00:37:17;101199.84;;;24.33;100.00
6028;BME280;3042;43.194;27.646;2022-11-20T00:39:45;101211.31;;;24.29;100.00
6028;BME280;3042;43.194;27.646;2022-11-20T00:42:12;101152.56;;;23.84;100.00
6028;BME280;3042;43.194;27.646;2022-11-20T00:44:39;101203.34;;;24.35;100.00
6028;BME280;3042;43.194;27.646;2022-11-20T00:47:06;101202.44;;;24.40;100.00
6028;BME280;3042;43.194;27.646;2022-11-20T00:49:35;101112.88;;;23.97;100.00
6028;BME280;3042;43.194;27.646;2022-11-20T00:52:02;101193.69;;;24.35;100.00
6028;BME280;3042;43.194;27.646;2022-11-20T00:54:29;101210.47;;;24.20;100.00
6028;BME280;3042;43.194;27.646;2022-11-20T00:56:56;101206.94;;;24.20;100.00
6028;BME280;3042;43.194;27.646;2022-11-20T00:59:24;101211.25;;;24.47;100.00
6028;BME280;3042;43.194;27.646;2022-11-20T01:01:51;101214.66;;;24.69;100.00
6028;BME280;3042;43.194;27.646;2022-11-20T01:04:18;101216.34;;;24.78;100.00
6028;BME280;3042;43.194;27.646;2022-11-20T01:06:46;101217.09;;;24.98;100.00
6028;BME280;3042;43.194;27.646;2022-11-20T01:09:14;101192.38;;;25.02;100.00
6028;BME280;3042;43.194;27.646;2022-11-20T01:11:43;101201.84;;;25.33;100.00
6028;BME280;3042;43.194;27.646;2022-11-20T01:14:12;101199.00;;;25.53;100.00
6028;BME280;3042;43.194;27.646;2022-11-20T01:16:41;101162.28;;;25.19;100.00
6028;BME280;3042;43.194;27.646;2022-11-20T01:19:11;101201.88;;;25.30;100.00
6028;BME280;3042;43.194;27.646;2022-11-20T01:21:40;101199.47;;;24.97;100.00
6028;BME280;3042;43.194;27.646;2022-11-20T01:24:12;101202.69;;;25.36;100.00
6028;BME280;3042;43.194;27.646;2022-11-20T01:26:41;101204.44;;;25.40;100.00
6028;BME280;3042;43.194;27.646;2022-11-20T01:29:13;101183.56;;;25.93;100.00
6028;BME280;3042;43.194;27.646;2022-11-20T01:31:41;101128.66;;;25.32;100.00
6028;BME280;3042;43.194;27.646;2022-11-20T01:34:11;101180.75;;;26.07;100.00
6028;BME280;3042;43.194;27.646;2022-11-20T01:36:39;101194.47;;;25.64;100.00
6028;BME280;3042;43.194;27.646;2022-11-20T01:39:12;101169.13;;;26.17;100.00
6028;BME280;3042;43.194;27.646;2022-11-20T01:41:40;101169.97;;;26.22;100.00
6028;BME280;3042;43.194;27.646;2022-11-20T01:44:47;101176.56;;;26.57;100.00
6028;BME280;3042;43.194;27.646;2022-11-20T01:47:18;101179.91;;;26.68;100.00
6028;BME280;3042;43.194;27.646;2022-11-20T01:49:51;101183.66;;;26.52;100.00
6028;BME280;3042;43.194;27.646;2022-11-20T01:52:21;101175.66;;;26.58;100.00
6028;BME280;3042;43.194;27.646;2022-11-20T01:54:58;101102.88;;;26.20;100.00
6028;BME280;3042;43.194;27.646;2022-11-20T01:57:28;101182.38;;;26.17;100.00
6028;BME280;3042;43.194;27.646;2022-11-20T02:00:00;101182.19;;;26.32;100.00
6028;BME280;3042;43.194;27.646;2022-11-20T02:02:28;101183.66;;;26.52;100.00
6028;BME280;3042;43.194;27.646;2022-11-20T02:04:58;101012.88;;;25.51;100.00
6028;BME280;3042;43.194;27.646;2022-11-20T02:07:27;101174.84;;;26.50;100.00
6028;BME280;3042;43.194;27.646;2022-11-20T02:09:57;101175.34;;;26.78;100.00
6028;BME280;3042;43.194;27.646;2022-11-20T02:12:24;101179.25;;;26.54;100.00
6028;BME280;3042;43.194;27.646;2022-11-20T02:15:09;101175.63;;;26.61;100.00
6028;BME280;3042;43.194;27.646;2022-11-20T02:17:36;101171.16;;;26.63;100.00
6028;BME280;3042;43.194;27.646;2022-11-20T02:20:05;101099.25;;;26.24;100.00
6028;BME280;3042;43.194;27.646;2022-11-20T02:22:35;101166.09;;;26.45;100.00
6028;BME280;3042;43.194;27.646;2022-11-20T02:25:10;101092.31;;;26.17;100.00
6028;BME280;3042;43.194;27.646;2022-11-20T02:27:38;101175.81;;;26.46;100.00
6028;BME280;3042;43.194;27.646;2022-11-20T02:30:06;101169.53;;;26.53;100.00
6028;BME280;3042;43.194;27.646;2022-11-20T02:32:37;101156.03;;;26.70;100.00
6028;BME280;3042;43.194;27.646;2022-11-20T02:35:09;101163.88;;;26.78;100.00
6028;BME280;3042;43.194;27.646;2022-11-20T02:37:38;101090.03;;;26.50;100.00
6028;BME280;3042;43.194;27.646;2022-11-20T02:40:09;101154.69;;;26.97;100.00
6028;BME280;3042;43.194;27.646;2022-11-20T02:42:37;101152.44;;;26.12;100.00
6028;BME280;3042;43.194;27.646;2022-11-20T02:45:05;101152.31;;;26.21;100.00
6028;BME280;3042;43.194;27.646;2022-11-20T02:47:33;101161.25;;;26.13;100.00
6028;BME280;3042;43.194;27.646;2022-11-20T02:50:00;101065.13;;;25.36;100.00
6028;BME280;3042;43.194;27.646;2022-11-20T02:52:28;101164.25;;;25.82;100.00
6028;BME280;3042;43.194;27.646;2022-11-20T02:54:55;101164.13;;;25.94;100.00
6028;BME280;3042;43.194;27.646;2022-11-20T02:57:23;101040.13;;;25.59;100.00
6028;BME280;3042;43.194;27.646;2022-11-20T02:59:51;101158.81;;;25.97;100.00
6028;BME280;3042;43.194;27.646;2022-11-20T03:02:18;101166.03;;;25.80;100.00
6028;BME280;3042;43.194;27.646;2022-11-20T03:04:46;101120.22;;;25.75;100.00
6028;BME280;3042;43.194;27.646;2022-11-20T03:07:13;101178.09;;;26.07;100.00
6028;BME280;3042;43.194;27.646;2022-11-20T03:09:40;101033.31;;;25.39;100.00
6028;BME280;3042;43.194;27.646;2022-11-20T03:12:07;101165.34;;;26.37;100.00
6028;BME280;3042;43.194;27.646;2022-11-20T03:14:36;101171.31;;;26.54;100.00
6028;BME280;3042;43.194;27.646;2022-11-20T03:17:03;101174.25;;;26.32;100.00
6028;BME280;3042;43.194;27.646;2022-11-20T03:19:30;101169.78;;;26.35;100.00
6028;BME280;3042;43.194;27.646;2022-11-20T03:21:57;101160.00;;;26.40;100.00
6028;BME280;3042;43.194;27.646;2022-11-20T03:24:26;101158.94;;;26.50;100.00
6028;BME280;3042;43.194;27.646;2022-11-20T03:26:53;101161.00;;;26.32;100.00
6028;BME280;3042;43.194;27.646;2022-11-20T03:29:20;101143.63;;;26.10;100.00
6028;BME280;3042;43.194;27.646;2022-11-20T03:31:49;101137.69;;;26.56;100.00
6028;BME280;3042;43.194;27.646;2022-11-20T03:34:16;101048.63;;;25.82;100.00
6028;BME280;3042;43.194;27.646;2022-11-20T03:36:44;101145.28;;;26.20;100.00
6028;BME280;3042;43.194;27.646;2022-11-20T03:39:11;101137.47;;;26.08;100.00
6028;BME280;3042;43.194;27.646;2022-11-20T03:41:40;101041.31;;;25.35;100.00
6028;BME280;3042;43.194;27.646;2022-11-20T03:44:10;101123.94;;;26.29;100.00
6028;BME280;3042;43.194;27.646;2022-11-20T03:46:37;101136.75;;;25.97;100.00
6028;BME280;3042;43.194;27.646;2022-11-20T03:49:06;101138.38;;;26.07;100.00
6028;BME280;3042;43.194;27.646;2022-11-20T03:51:34;101128.75;;;26.01;100.00
6028;BME280;3042;43.194;27.646;2022-11-20T03:54:03;101123.47;;;26.01;100.00
6028;BME280;3042;43.194;27.646;2022-11-20T03:56:33;101108.94;;;26.28;100.00
6028;BME280;3042;43.194;27.646;2022-11-20T03:59:00;101110.97;;;26.09;100.00
6028;BME280;3042;43.194;27.646;2022-11-20T04:01:29;101107.50;;;26.04;100.00
6028;BME280;3042;43.194;27.646;2022-11-20T04:03:57;101063.94;;;25.59;100.00
6028;BME280;3042;43.194;27.646;2022-11-20T04:06:27;101111.09;;;26.02;100.00
6028;BME280;3042;43.194;27.646;2022-11-20T04:08:56;101109.28;;;26.04;100.00
6028;BME280;3042;43.194;27.646;2022-11-20T04:11:26;101100.31;;;26.16;100.00
6028;BME280;3042;43.194;27.646;2022-11-20T04:13:56;101088.44;;;26.40;100.00
6028;BME280;3042;43.194;27.646;2022-11-20T04:16:25;101084.88;;;25.79;100.00
6028;BME280;3042;43.194;27.646;2022-11-20T04:18:52;101094.50;;;25.84;100.00
6028;BME280;3042;43.194;27.646;2022-11-20T04:21:21;101105.31;;;25.69;100.00
6028;BME280;3042;43.194;27.646;2022-11-20T04:23:50;101096.44;;;25.70;100.00
6028;BME280;3042;43.194;27.646;2022-11-20T04:26:18;101092.88;;;25.74;100.00
6028;BME280;3042;43.194;27.646;2022-11-20T04:28:46;101093.34;;;26.05;100.00
6028;BME280;3042;43.194;27.646;2022-11-20T04:31:15;101076.03;;;25.80;100.00
6028;BME280;3042;43.194;27.646;2022-11-20T04:33:42;101099.19;;;26.30;100.00
6028;BME280;3042;43.194;27.646;2022-11-20T04:36:11;101092.31;;;26.17;100.00
6028;BME280;3042;43.194;27.646;2022-11-20T04:38:39;101094.50;;;25.84;100.00
6028;BME280;3042;43.194;27.646;2022-11-20T04:41:15;101087.25;;;25.99;100.00
6028;BME280;3042;43.194;27.646;2022-11-20T04:43:46;101085.28;;;26.16;100.00
6028;BME280;3042;43.194;27.646;2022-11-20T04:46:14;101040.13;;;25.59;100.00
6028;BME280;3042;43.194;27.646;2022-11-20T04:48:42;101049.50;;;25.09;100.00
6028;BME280;3042;43.194;27.646;2022-11-20T04:51:11;101077.44;;;25.37;100.00
6028;BME280;3042;43.194;27.646;2022-11-20T04:53:38;101088.81;;;25.44;100.00
6028;BME280;3042;43.194;27.646;2022-11-20T04:56:09;101082.41;;;25.63;100.00
6028;BME280;3042;43.194;27.646;2022-11-20T04:58:37;101078.72;;;25.75;100.00
6028;BME280;3042;43.194;27.646;2022-11-20T05:01:06;100909.06;;;24.59;100.00
6028;BME280;3042;43.194;27.646;2022-11-20T05:03:33;101030.13;;;25.06;100.00
6028;BME280;3042;43.194;27.646;2022-11-20T05:06:01;101088.00;;;25.40;100.00
6028;BME280;3042;43.194;27.646;2022-11-20T05:08:29;101037.28;;;24.95;100.00
6028;BME280;3042;43.194;27.646;2022-11-20T05:11:00;101074.19;;;25.89;100.00
6028;BME280;3042;43.194;27.646;2022-11-20T05:13:30;101074.34;;;25.74;100.00
6028;BME280;3042;43.194;27.646;2022-11-20T05:16:01;101025.22;;;25.52;100.00
6028;BME280;3042;43.194;27.646;2022-11-20T05:18:28;101076.28;;;25.60;100.00
6028;BME280;3042;43.194;27.646;2022-11-20T05:20:56;101095.63;;;25.66;100.00
6028;BME280;3042;43.194;27.646;2022-11-20T05:23:23;101082.63;;;25.46;100.00
6028;BME280;3042;43.194;27.646;2022-11-20T05:25:52;101087.25;;;25.99;100.00
6028;BME280;3042;43.194;27.646;2022-11-20T05:28:20;101081.25;;;25.84;100.00
6028;BME280;3042;43.194;27.646;2022-11-20T05:30:49;101081.34;;;25.78;100.00
6028;BME280;3042;43.194;27.646;2022-11-20T05:33:16;101087.63;;;25.71;100.00
6028;BME280;3042;43.194;27.646;2022-11-20T05:35:44;101100.00;;;25.69;100.00
6028;BME280;3042;43.194;27.646;2022-11-20T05:38:11;101098.13;;;25.77;100.00
6028;BME280;3042;43.194;27.646;2022-11-20T05:40:38;101103.41;;;25.79;100.00
6028;BME280;3042;43.194;27.646;2022-11-20T05:43:06;101100.06;;;25.63;100.00
6028;BME280;3042;43.194;27.646;2022-11-20T05:45:33;101110.50;;;25.75;100.00
6028;BME280;3042;43.194;27.646;2022-11-20T05:48:02;101097.25;;;25.78;100.00
6028;BME280;3042;43.194;27.646;2022-11-20T05:50:30;101106.03;;;25.80;100.00
6028;BME280;3042;43.194;27.646;2022-11-20T05:52:58;101004.88;;;24.76;100.00
6028;BME280;3042;43.194;27.646;2022-11-20T05:55:26;101042.59;;;24.95;100.00
6028;BME280;3042;43.194;27.646;2022-11-20T05:57:53;101107.31;;;25.48;100.00
6028;BME280;3042;43.194;27.646;2022-11-20T06:00:21;101121.34;;;25.54;100.00
6028;BME280;3042;43.194;27.646;2022-11-20T06:02:49;101116.91;;;25.57;100.00
6028;BME280;3042;43.194;27.646;2022-11-20T06:05:17;101114.53;;;25.34;100.00
6028;BME280;3042;43.194;27.646;2022-11-20T06:07:45;101116.19;;;25.41;100.00
6028;BME280;3042;43.194;27.646;2022-11-20T06:10:12;101116.66;;;25.77;100.00
6028;BME280;3042;43.194;27.646;2022-11-20T06:12:39;101111.16;;;25.97;100.00
6028;BME280;3042;43.194;27.646;2022-11-20T06:15:07;101113.94;;;25.83;100.00
6028;BME280;3042;43.194;27.646;2022-11-20T06:17:34;101120.09;;;25.85;100.00
6028;BME280;3042;43.194;27.646;2022-11-20T06:20:02;100798.06;;;23.72;100.00
6028;BME280;3042;43.194;27.646;2022-11-20T06:22:32;101118.59;;;25.61;100.00
6028;BME280;3042;43.194;27.646;2022-11-20T06:24:59;101136.97;;;25.78;100.00
6028;BME280;3042;43.194;27.646;2022-11-20T06:27:27;101116.88;;;26.28;100.00
6028;BME280;3042;43.194;27.646;2022-11-20T06:29:54;101131.13;;;26.21;100.00
6028;BME280;3042;43.194;27.646;2022-11-20T06:32:21;100970.03;;;25.24;100.00
6028;BME280;3042;43.194;27.646;2022-11-20T06:34:48;101134.75;;;26.14;100.00
6028;BME280;3042;43.194;27.646;2022-11-20T06:37:16;101121.44;;;26.20;100.00
6028;BME280;3042;43.194;27.646;2022-11-20T06:39:44;101111.31;;;26.47;100.00
6028;BME280;3042;43.194;27.646;2022-11-20T06:42:12;101029.25;;;25.80;100.00
6028;BME280;3042;43.194;27.646;2022-11-20T06:44:39;101124.94;;;26.21;100.00
6028;BME280;3042;43.194;27.646;2022-11-20T06:47:06;101119.41;;;26.36;100.00
6028;BME280;3042;43.194;27.646;2022-11-20T06:49:34;101085.34;;;26.10;100.00
6028;BME280;3042;43.194;27.646;2022-11-20T06:52:02;101121.91;;;26.47;100.00
6028;BME280;3042;43.194;27.646;2022-11-20T06:54:30;101112.75;;;26.69;100.00
6028;BME280;3042;43.194;27.646;2022-11-20T06:56:59;101107.47;;;27.21;100.00
6028;BME280;3042;43.194;27.646;2022-11-20T06:59:26;101117.16;;;27.22;100.00
6028;BME280;3042;43.194;27.646;2022-11-20T07:01:53;101017.97;;;26.26;100.00
6028;BME280;3042;43.194;27.646;2022-11-20T07:04:21;101123.00;;;26.91;100.00
6028;BME280;3042;43.194;27.646;2022-11-20T07:06:48;101132.19;;;26.68;100.00
6028;BME280;3042;43.194;27.646;2022-11-20T07:09:15;101028.63;;;26.23;100.00
6028;BME280;3042;43.194;27.646;2022-11-20T07:11:43;101135.03;;;27.10;100.00
6028;BME280;3042;43.194;27.646;2022-11-20T07:14:11;101127.78;;;27.22;100.00
6028;BME280;3042;43.194;27.646;2022-11-20T07:16:39;101129.63;;;27.16;100.00
6028;BME280;3042;43.194;27.646;2022-11-20T07:19:06;101116.16;;;27.29;100.00
6028;BME280;3042;43.194;27.646;2022-11-20T07:21:33;101117.88;;;27.30;100.00
6028;BME280;3042;43.194;27.646;2022-11-20T07:24:00;101127.13;;;27.07;100.00
6028;BME280;3042;43.194;27.646;2022-11-20T07:26:28;101109.81;;;27.36;100.00
6028;BME280;3042;43.194;27.646;2022-11-20T07:28:55;101112.34;;;27.42;100.00
6028;BME280;3042;43.194;27.646;2022-11-20T07:31:23;101106.41;;;27.73;100.00
6028;BME280;3042;43.194;27.646;2022-11-20T07:33:51;101063.28;;;27.62;100.00
6028;BME280;3042;43.194;27.646;2022-11-20T07:36:18;101112.84;;;28.05;100.00
6028;BME280;3042;43.194;27.646;2022-11-20T07:38:46;101109.13;;;28.12;100.00
6028;BME280;3042;43.194;27.646;2022-11-20T07:41:13;101123.72;;;27.94;100.00
6028;BME280;3042;43.194;27.646;2022-11-20T07:43:40;101122.88;;;27.90;100.00
6028;BME280;3042;43.194;27.646;2022-11-20T07:46:08;101069.25;;;28.12;100.00
6028;BME280;3042;43.194;27.646;2022-11-20T07:48:36;101100.19;;;28.55;100.00
6028;BME280;3042;43.194;27.646;2022-11-20T07:51:04;101123.59;;;28.37;100.00
6028;BME280;3042;43.194;27.646;2022-11-20T07:53:31;101107.47;;;28.47;100.00
6028;BME280;3042;43.194;27.646;2022-11-20T07:55:59;101097.91;;;28.75;100.00
6028;BME280;3042;43.194;27.646;2022-11-20T07:58:28;101103.84;;;28.49;100.00
6028;BME280;3042;43.194;27.646;2022-11-20T08:01:01;101078.50;;;27.95;100.00
6028;BME280;3042;43.194;27.646;2022-11-20T08:03:29;101118.78;;;28.16;100.00
6028;BME280;3042;43.194;27.646;2022-11-20T08:06:00;101107.47;;;28.47;100.00
6028;BME280;3042;43.194;27.646;2022-11-20T08:08:27;101111.75;;;28.15;100.00
6028;BME280;3042;43.194;27.646;2022-11-20T08:10:56;101118.44;;;28.31;100.00
6028;BME280;3042;43.194;27.646;2022-11-20T08:13:44;101120.72;;;28.48;100.00
6028;BME280;3042;43.194;27.646;2022-11-20T08:16:28;101120.34;;;28.26;100.00
6028;BME280;3042;43.194;27.646;2022-11-20T08:18:55;101125.28;;;28.41;100.00
6028;BME280;3042;43.194;27.646;2022-11-20T08:21:24;101127.31;;;28.30;100.00
6028;BME280;3042;43.194;27.646;2022-11-20T08:23:51;101129.13;;;28.28;100.00
6028;BME280;3042;43.194;27.646;2022-11-20T08:26:19;101112.84;;;28.05;100.00
6028;BME280;3042;43.194;27.646;2022-11-20T08:28:47;101133.69;;;27.81;100.00
6028;BME280;3042;43.194;27.646;2022-11-20T08:31:14;101066.84;;;27.61;100.00
6028;BME280;3042;43.194;27.646;2022-11-20T08:33:42;101135.50;;;27.79;100.00
6028;BME280;3042;43.194;27.646;2022-11-20T08:36:09;101122.06;;;27.43;100.00
6028;BME280;3042;43.194;27.646;2022-11-20T08:38:38;101119.91;;;27.62;100.00
6028;BME280;3042;43.194;27.646;2022-11-20T08:41:06;101116.56;;;27.54;100.00
6028;BME280;3042;43.194;27.646;2022-11-20T08:43:54;101105.31;;;27.85;100.00
6028;BME280;3042;43.194;27.646;2022-11-20T08:46:23;101107.13;;;27.81;100.00
6028;BME280;3042;43.194;27.646;2022-11-20T08:48:50;101107.38;;;27.69;100.00
6028;BME280;3042;43.194;27.646;2022-11-20T08:51:18;101025.84;;;27.32;100.00
6028;BME280;3042;43.194;27.646;2022-11-20T08:53:48;101067.72;;;27.61;100.00
6028;BME280;3042;43.194;27.646;2022-11-20T08:56:15;100813.50;;;26.06;100.00
6028;BME280;3042;43.194;27.646;2022-11-20T08:58:43;101085.50;;;27.99;100.00
6028;BME280;3042;43.194;27.646;2022-11-20T09:01:11;101094.59;;;27.89;100.00
6028;BME280;3042;43.194;27.646;2022-11-20T09:03:38;101087.50;;;28.29;100.00
6028;BME280;3042;43.194;27.646;2022-11-20T09:06:07;100988.16;;;27.56;100.00
6028;BME280;3042;43.194;27.646;2022-11-20T09:08:34;101097.69;;;28.10;100.00
6028;BME280;3042;43.194;27.646;2022-11-20T09:11:05;101092.28;;;27.71;100.00
6028;BME280;3042;43.194;27.646;2022-11-20T09:13:33;101097.09;;;27.53;100.00
6028;BME280;3042;43.194;27.646;2022-11-20T09:16:02;101103.16;;;27.12;100.00
6028;BME280;3042;43.194;27.646;2022-11-20T09:18:30;101101.22;;;27.67;100.00
6028;BME280;3042;43.194;27.646;2022-11-20T09:20:59;100913.63;;;26.83;100.00
6028;BME280;3042;43.194;27.646;2022-11-20T09:23:26;100857.19;;;26.30;100.00
6028;BME280;3042;43.194;27.646;2022-11-20T09:25:54;101100.63;;;27.52;100.00
6028;BME280;3042;43.194;27.646;2022-11-20T09:28:26;101092.59;;;28.01;100.00
6028;BME280;3042;43.194;27.646;2022-11-20T09:30:53;101087.63;;;27.82;100.00
6028;BME280;3042;43.194;27.646;2022-11-20T09:33:21;101045.47;;;27.67;100.00
6028;BME280;3042;43.194;27.646;2022-11-20T09:35:48;101091.66;;;28.02;100.00
6028;BME280;3042;43.194;27.646;2022-11-20T09:38:15;101088.78;;;27.70;100.00
6028;BME280;3042;43.194;27.646;2022-11-20T09:40:46;101067.19;;;28.26;100.00
6028;BME280;3042;43.194;27.646;2022-11-20T09:43:19;101035.56;;;28.14;100.00
6028;BME280;3042;43.194;27.646;2022-11-20T09:46:02;101074.66;;;28.09;100.00
6028;BME280;3042;43.194;27.646;2022-11-20T09:48:40;101072.19;;;28.01;100.00
6028;BME280;3042;43.194;27.646;2022-11-20T09:51:16;101069.84;;;27.87;100.00
6028;BME280;3042;43.194;27.646;2022-11-20T09:53:58;101062.16;;;27.72;100.00
6028;BME280;3042;43.194;27.646;2022-11-20T09:56:28;101063.09;;;27.71;100.00
6028;BME280;3042;43.194;27.646;2022-11-20T09:58:59;100822.66;;;26.80;100.00
6028;BME280;3042;43.194;27.646;2022-11-20T10:01:34;101044.66;;;28.41;100.00
6028;BME280;3042;43.194;27.646;2022-11-20T10:04:06;101053.69;;;27.96;100.00
6028;BME280;3042;43.194;27.646;2022-11-20T10:06:41;101053.19;;;28.18;100.00
6028;BME280;3042;43.194;27.646;2022-11-20T10:09:19;101050.75;;;28.09;100.00
6028;BME280;3042;43.194;27.646;2022-11-20T10:11:55;101041.91;;;28.08;100.00
6028;BME280;3042;43.194;27.646;2022-11-20T10:14:30;101036.88;;;28.33;100.00
6028;BME280;3042;43.194;27.646;2022-11-20T10:17:13;101019.81;;;28.42;100.00
6028;BME280;3042;43.194;27.646;2022-11-20T10:19:59;100957.50;;;27.81;100.00
6028;BME280;3042;43.194;27.646;2022-11-20T10:22:44;101031.47;;;28.36;100.00
6028;BME280;3042;43.194;27.646;2022-11-20T10:25:18;101036.47;;;28.14;100.00
6028;BME280;3042;43.194;27.646;2022-11-20T10:28:08;101018.00;;;28.44;100.00
6028;BME280;3042;43.194;27.646;2022-11-20T10:30:40;101030.56;;;28.37;100.00
6028;BME280;3042;43.194;27.646;2022-11-20T10:33:15;101034.28;;;28.30;100.00
6028;BME280;3042;43.194;27.646;2022-11-20T10:35:49;101023.84;;;28.23;100.00
6028;BME280;3042;43.194;27.646;2022-11-20T10:38:20;101023.34;;;28.07;100.00
6028;BME280;3042;43.194;27.646;2022-11-20T10:40:51;101029.56;;;28.41;100.00
6028;BME280;3042;43.194;27.646;2022-11-20T10:43:42;101019.38;;;28.60;100.00
6028;BME280;3042;43.194;27.646;2022-11-20T10:46:14;100945.44;;;28.40;100.00
6028;BME280;3042;43.194;27.646;2022-11-20T10:48:45;100998.16;;;28.92;100.00
6028;BME280;3042;43.194;27.646;2022-11-20T10:51:18;101006.28;;;28.86;100.00
6028;BME280;3042;43.194;27.646;2022-11-20T10:53:58;101009.06;;;28.82;100.00
6028;BME280;3042;43.194;27.646;2022-11-20T10:56:35;101018.00;;;28.44;100.00
6028;BME280;3042;43.194;27.646;2022-11-20T10:59:38;101009.88;;;28.52;100.00
6028;BME280;3042;43.194;27.646;2022-11-20T11:02:16;101014.91;;;28.61;100.00
6028;BME280;3042;43.194;27.646;2022-11-20T11:04:47;101006.78;;;28.67;100.00
6028;BME280;3042;43.194;27.646;2022-11-20T11:07:17;101011.00;;;28.40;100.00
6028;BME280;3042;43.194;27.646;2022-11-20T11:09:48;101006.56;;;28.40;100.00
6028;BME280;3042;43.194;27.646;2022-11-20T11:12:16;101017.22;;;28.40;100.00
6028;BME280;3042;43.194;27.646;2022-11-20T11:14:46;100977.97;;;28.52;100.00
6028;BME280;3042;43.194;27.646;2022-11-20T11:17:26;100978.94;;;28.80;100.00
6028;BME280;3042;43.194;27.646;2022-11-20T11:20:01;101005.56;;;28.80;100.00
6028;BME280;3042;43.194;27.646;2022-11-20T11:22:30;100990.09;;;28.62;100.00
6028;BME280;3042;43.194;27.646;2022-11-20T11:24:58;100879.72;;;27.75;100.00
6028;BME280;3042;43.194;27.646;2022-11-20T11:27:26;101022.41;;;28.79;100.00
6028;BME280;3042;43.194;27.646;2022-11-20T11:30:11;100878.25;;;28.01;100.00
6028;BME280;3042;43.194;27.646;2022-11-20T11:32:39;100952.47;;;28.41;100.00
6028;BME280;3042;43.194;27.646;2022-11-20T11:35:22;101032.53;;;28.99;100.00
6028;BME280;3042;43.194;27.646;2022-11-20T11:37:50;100946.13;;;28.49;100.00
6028;BME280;3042;43.194;27.646;2022-11-20T11:40:21;101032.34;;;29.07;100.00
6028;BME280;3042;43.194;27.646;2022-11-20T11:42:54;101025.31;;;29.36;100.00
6028;BME280;3042;43.194;27.646;2022-11-20T11:45:22;101030.88;;;29.27;100.00
6028;BME280;3042;43.194;27.646;2022-11-20T11:47:51;101030.56;;;29.39;100.00
6028;BME280;3042;43.194;27.646;2022-11-20T11:50:22;101040.47;;;29.01;100.00
6028;BME280;3042;43.194;27.646;2022-11-20T11:53:01;101040.63;;;28.95;100.00
6028;BME280;3042;43.194;27.646;2022-11-20T11:55:34;100925.03;;;28.07;100.00
6028;BME280;3042;43.194;27.646;2022-11-20T11:58:11;101049.84;;;28.81;100.00
6028;BME280;3042;43.194;27.646;2022-11-20T12:00:44;101061.78;;;28.67;100.00
6028;BME280;3042;43.194;27.646;2022-11-20T12:03:18;100863.53;;;27.50;100.00
6028;BME280;3042;43.194;27.646;2022-11-20T12:05:50;101050.28;;;28.66;100.00
6028;BME280;3042;43.194;27.646;2022-11-20T12:08:25;101008.31;;;28.41;100.00
6028;BME280;3042;43.194;27.646;2022-11-20T12:10:58;101061.16;;;28.55;100.00
6028;BME280;3042;43.194;27.646;2022-11-20T12:13:42;101054.91;;;28.58;100.00
6028;BME280;3042;43.194;27.646;2022-11-20T12:16:13;101050.66;;;28.51;100.00
6028;BME280;3042;43.194;27.646;2022-11-20T12:18:42;100979.22;;;27.99;100.00
6028;BME280;3042;43.194;27.646;2022-11-20T12:21:19;100996.69;;;28.47;100.00
6028;BME280;3042;43.194;27.646;2022-11-20T12:24:27;101016.13;;;28.49;100.00
6028;BME280;3042;43.194;27.646;2022-11-20T12:27:14;101041.88;;;28.46;100.00
6028;BME280;3042;43.194;27.646;2022-11-20T12:29:54;101038.03;;;28.59;100.00
6028;BME280;3042;43.194;27.646;2022-11-20T12:32:39;101015.38;;;28.78;100.00
6028;BME280;3042;43.194;27.646;2022-11-20T12:35:20;101021.91;;;28.65;100.00
6028;BME280;3042;43.194;27.646;2022-11-20T12:38:07;101028.63;;;28.44;100.00
6028;BME280;3042;43.194;27.646;2022-11-20T12:40:45;101033.22;;;28.37;100.00
6028;BME280;3042;43.194;27.646;2022-11-20T12:43:21;100995.72;;;27.75;100.00
6028;BME280;3042;43.194;27.646;2022-11-20T12:46:25;101035.34;;;28.23;100.00
6028;BME280;3042;43.194;27.646;2022-11-20T12:49:04;101036.34;;;28.19;100.00
6028;BME280;3042;43.194;27.646;2022-11-20T12:51:55;101041.19;;;28.02;100.00
6028;BME280;3042;43.194;27.646;2022-11-20T12:57:23;101031.09;;;27.77;100.00
6028;BME280;3042;43.194;27.646;2022-11-20T13:00:10;101029.41;;;28.12;100.00
6028;BME280;3042;43.194;27.646;2022-11-20T13:02:56;101037.97;;;27.87;100.00
6028;BME280;3042;43.194;27.646;2022-11-20T13:05:31;100890.22;;;27.44;100.00
6028;BME280;3042;43.194;27.646;2022-11-20T13:08:02;101027.44;;;28.22;100.00
6028;BME280;3042;43.194;27.646;2022-11-20T13:10:35;101009.88;;;28.52;100.00